createdAt,value
2023-05-14T00:00:47.522Z,12.38
2023-05-14T00:03:15.212Z,11.55
2023-05-14T00:05:42.882Z,11.95
2023-05-14T00:08:11.862Z,11.70
2023-05-14T00:10:39.436Z,9.80
2023-05-14T00:13:07.134Z,8.98
2023-05-14T00:15:34.723Z,11.60
2023-05-14T00:18:02.396Z,12.00
2023-05-14T00:20:30.114Z,12.13
2023-05-14T00:22:57.615Z,10.45
2023-05-14T00:25:26.512Z,11.40
2023-05-14T00:27:54.484Z,8.50
2023-05-14T00:30:22.270Z,9.20
2023-05-14T00:32:50.009Z,10.88
2023-05-14T00:35:17.606Z,13.07
2023-05-14T00:37:45.100Z,13.20
2023-05-14T00:40:13.117Z,11.90
2023-05-14T00:42:42.064Z,9.68
2023-05-14T00:45:10.038Z,11.88
2023-05-14T00:47:39.282Z,14.38
2023-05-14T00:50:07.669Z,13.15
2023-05-14T00:52:35.440Z,11.30
2023-05-14T00:55:04.765Z,10.57
2023-05-14T00:57:32.370Z,11.23
2023-05-14T01:00:02.081Z,10.63
2023-05-14T01:02:32.134Z,9.93
2023-05-14T01:04:59.688Z,10.93
2023-05-14T01:07:32.524Z,9.27
2023-05-14T01:10:04.243Z,11.82
2023-05-14T01:12:35.894Z,9.50
2023-05-14T01:15:09.160Z,12.07
2023-05-14T01:17:39.589Z,12.43
2023-05-14T01:20:10.250Z,11.45
2023-05-14T01:22:39.098Z,9.43
2023-05-14T01:25:07.164Z,11.13
2023-05-14T01:27:40.653Z,9.10
2023-05-14T01:30:17.029Z,8.88
2023-05-14T01:32:45.967Z,9.88
2023-05-14T01:35:13.859Z,9.65
2023-05-14T01:37:43.003Z,11.15
2023-05-14T01:40:14.575Z,6.70
2023-05-14T01:42:42.352Z,9.23
2023-05-14T01:45:10.754Z,9.77
2023-05-14T01:47:42.866Z,11.60
2023-05-14T01:50:11.047Z,10.48
2023-05-14T01:52:38.654Z,10.15
2023-05-14T01:55:12.189Z,13.55
2023-05-14T01:57:39.706Z,13.13
2023-05-14T02:00:07.837Z,10.98
2023-05-14T02:02:35.580Z,10.82
2023-05-14T02:05:04.329Z,13.02
2023-05-14T02:07:33.749Z,11.57
2023-05-14T02:10:01.251Z,11.90
2023-05-14T02:12:30.133Z,11.65
2023-05-14T02:14:57.743Z,11.60
2023-05-14T02:17:26.108Z,10.88
2023-05-14T02:19:56.597Z,10.13
2023-05-14T02:22:24.143Z,10.38
2023-05-14T02:24:51.740Z,13.75
2023-05-14T02:27:19.388Z,12.25
2023-05-14T02:29:51.412Z,12.63
2023-05-14T02:32:18.966Z,10.00
2023-05-14T02:34:46.574Z,12.02
2023-05-14T02:37:14.195Z,10.75
2023-05-14T02:39:41.675Z,10.35
2023-05-14T02:42:09.185Z,9.68
2023-05-14T02:44:36.832Z,9.20
2023-05-14T02:47:06.030Z,13.90
2023-05-14T02:49:33.614Z,10.48
2023-05-14T02:52:01.804Z,12.75
2023-05-14T02:54:29.327Z,10.93
2023-05-14T02:56:56.837Z,12.32
2023-05-14T02:59:24.854Z,10.98
2023-05-14T03:01:53.022Z,10.43
2023-05-14T03:04:22.386Z,9.80
2023-05-14T03:06:50.060Z,10.73
2023-05-14T03:09:17.544Z,11.82
2023-05-14T03:11:46.158Z,10.93
2023-05-14T03:14:13.806Z,10.10
2023-05-14T03:16:42.330Z,13.82
2023-05-14T03:19:10.446Z,13.65
2023-05-14T03:21:39.436Z,11.57
2023-05-14T03:24:07.260Z,10.88
2023-05-14T03:26:34.881Z,11.38
2023-05-14T03:29:03.876Z,10.55
2023-05-14T03:31:31.617Z,11.35
2023-05-14T03:33:59.266Z,9.65
2023-05-14T03:36:27.061Z,11.93
2023-05-14T03:38:56.137Z,12.48
2023-05-14T03:41:24.007Z,15.10
2023-05-14T03:43:51.844Z,8.52
2023-05-14T03:46:19.415Z,10.48
2023-05-14T03:48:47.013Z,9.55
2023-05-14T03:51:14.603Z,11.40
2023-05-14T03:53:42.404Z,8.75
2023-05-14T03:56:11.341Z,10.90
2023-05-14T03:58:39.075Z,9.77
2023-05-14T04:01:06.636Z,9.63
2023-05-14T04:03:34.402Z,9.65
2023-05-14T04:06:02.567Z,12.55
2023-05-14T04:08:30.152Z,11.57
2023-05-14T04:10:57.770Z,8.98
2023-05-14T04:13:26.780Z,10.55
2023-05-14T04:15:54.526Z,8.98
2023-05-14T04:18:22.188Z,13.65
2023-05-14T04:20:49.887Z,8.95
2023-05-14T04:23:17.441Z,11.02
2023-05-14T04:25:45.022Z,9.65
2023-05-14T04:28:12.560Z,9.90
2023-05-14T04:30:41.579Z,9.68
2023-05-14T04:33:09.397Z,10.77
2023-05-14T04:35:37.044Z,11.07
2023-05-14T04:38:04.800Z,12.55
2023-05-14T04:40:32.445Z,10.50
2023-05-14T04:43:00.138Z,13.23
2023-05-14T04:45:27.798Z,9.57
2023-05-14T04:47:56.747Z,11.00
2023-05-14T04:50:24.686Z,10.82
2023-05-14T04:52:52.533Z,8.68
2023-05-14T04:55:20.081Z,10.50
2023-05-14T04:57:47.746Z,11.13
2023-05-14T05:00:15.737Z,8.48
2023-05-14T05:02:43.553Z,9.52
2023-05-14T05:05:12.668Z,10.10
2023-05-14T05:07:40.278Z,10.18
2023-05-14T05:10:08.625Z,10.32
2023-05-14T05:12:36.217Z,10.05
2023-05-14T05:15:03.758Z,10.10
2023-05-14T05:17:31.440Z,10.98
2023-05-14T05:19:59.014Z,12.20
2023-05-14T05:22:28.081Z,8.77
2023-05-14T05:24:55.843Z,11.70
2023-05-14T05:27:23.415Z,8.25
2023-05-14T05:29:50.959Z,10.48
2023-05-14T05:32:18.528Z,9.70
2023-05-14T05:34:46.115Z,9.50
2023-05-14T05:37:14.906Z,8.45
2023-05-14T05:39:44.026Z,10.45
2023-05-14T05:42:11.608Z,10.60
2023-05-14T05:44:39.225Z,11.70
2023-05-14T05:47:07.068Z,10.20
2023-05-14T05:49:34.693Z,10.00
2023-05-14T05:52:02.224Z,9.32
2023-05-14T05:54:29.773Z,9.68
2023-05-14T05:56:58.920Z,10.48
2023-05-14T05:59:26.580Z,8.60
2023-05-14T06:01:54.503Z,9.18
2023-05-14T06:04:22.190Z,11.00
2023-05-14T06:06:49.769Z,10.50
2023-05-14T06:09:17.386Z,11.85
2023-05-14T06:11:44.961Z,9.05
2023-05-14T06:14:13.956Z,10.48
2023-05-14T06:16:41.555Z,11.43
2023-05-14T06:19:10.101Z,11.48
2023-05-14T06:21:38.176Z,9.52
2023-05-14T06:24:06.133Z,11.40
2023-05-14T06:26:33.913Z,10.02
2023-05-14T06:29:01.499Z,10.55
2023-05-14T06:31:30.482Z,10.75
2023-05-14T06:33:58.156Z,11.65
2023-05-14T06:36:25.766Z,11.15
2023-05-14T06:38:53.574Z,12.65
2023-05-14T06:41:22.659Z,12.40
2023-05-14T06:43:50.272Z,9.95
2023-05-14T06:46:17.817Z,10.73
2023-05-14T06:48:47.114Z,12.10
2023-05-14T06:51:14.748Z,11.20
2023-05-14T06:53:42.227Z,11.18
2023-05-14T06:56:09.845Z,13.25
2023-05-14T06:58:37.403Z,9.27
2023-05-14T07:01:05.227Z,10.75
2023-05-14T07:03:32.955Z,10.95
2023-05-14T07:06:02.006Z,11.57
2023-05-14T07:08:29.590Z,11.38
2023-05-14T07:10:57.341Z,12.77
2023-05-14T07:13:27.563Z,12.82
2023-05-14T07:15:56.767Z,12.52
2023-05-14T07:18:24.533Z,10.45
2023-05-14T07:20:52.621Z,11.07
2023-05-14T07:23:21.798Z,10.77
2023-05-14T07:25:49.407Z,10.52
2023-05-14T07:28:16.994Z,12.02
2023-05-14T07:30:44.850Z,11.13
2023-05-14T07:33:12.807Z,9.98
2023-05-14T07:35:40.590Z,11.57
2023-05-14T07:38:11.500Z,11.90
2023-05-14T07:40:40.777Z,14.15
2023-05-14T07:43:08.310Z,10.52
2023-05-14T07:45:37.359Z,10.32
2023-05-14T07:48:08.631Z,12.40
2023-05-14T07:50:36.670Z,11.95
2023-05-14T07:53:04.288Z,11.25
2023-05-14T07:55:31.861Z,10.10
2023-05-14T07:58:00.911Z,12.20
2023-05-14T08:00:28.747Z,10.95
2023-05-14T08:02:57.030Z,10.85
2023-05-14T08:05:24.774Z,10.95
2023-05-14T08:07:52.622Z,9.77
2023-05-14T08:10:21.363Z,9.70
2023-05-14T08:12:49.485Z,11.07
2023-05-14T08:15:24.532Z,14.75
2023-05-14T08:17:54.143Z,12.43
2023-05-14T08:20:34.194Z,18.98
2023-05-14T08:23:04.132Z,9.75
2023-05-14T08:25:31.914Z,15.95
2023-05-14T08:28:02.804Z,11.52
2023-05-14T08:30:31.850Z,12.00
2023-05-14T08:32:59.669Z,10.35
2023-05-14T08:35:27.426Z,11.63
2023-05-14T08:37:54.972Z,12.52
2023-05-14T08:40:22.858Z,10.80
2023-05-14T08:42:52.501Z,10.48
2023-05-14T08:45:20.811Z,10.35
2023-05-14T08:47:51.493Z,12.30
2023-05-14T08:50:21.912Z,14.45
2023-05-14T08:52:50.832Z,11.73
2023-05-14T08:55:18.647Z,11.82
2023-05-14T08:57:46.579Z,12.18
2023-05-14T09:00:15.677Z,10.98
2023-05-14T09:02:44.890Z,12.13
2023-05-14T09:05:13.962Z,13.82
2023-05-14T09:07:42.432Z,14.40
2023-05-14T09:10:13.023Z,13.23
2023-05-14T09:12:40.636Z,11.57
2023-05-14T09:15:08.666Z,13.40
2023-05-14T09:17:36.493Z,12.48
2023-05-14T09:20:05.298Z,12.20
2023-05-14T09:22:37.293Z,12.60
2023-05-14T09:25:06.016Z,17.30
2023-05-14T09:27:34.069Z,11.23
2023-05-14T09:30:08.946Z,13.50
2023-05-14T09:32:37.321Z,12.20
2023-05-14T09:35:17.465Z,12.95
2023-05-14T09:37:47.742Z,11.73
2023-05-14T09:40:15.806Z,11.95
2023-05-14T09:42:43.891Z,10.82
2023-05-14T09:45:12.518Z,13.60
2023-05-14T09:47:40.457Z,10.90
2023-05-14T09:50:08.703Z,11.52
2023-05-14T09:52:36.309Z,17.08
2023-05-14T09:55:05.671Z,11.57
2023-05-14T09:57:33.628Z,10.18
2023-05-14T10:00:01.382Z,11.90
2023-05-14T10:02:36.826Z,10.75
2023-05-14T10:05:05.883Z,10.77
2023-05-14T10:07:37.585Z,13.02
2023-05-14T10:10:09.335Z,11.57
2023-05-14T10:12:39.857Z,10.82
2023-05-14T10:15:11.136Z,11.50
2023-05-14T10:17:39.332Z,9.70
2023-05-14T10:20:09.415Z,11.18
2023-05-14T10:22:37.086Z,8.82
2023-05-14T10:25:06.945Z,8.73
2023-05-14T10:27:35.217Z,10.75
2023-05-14T10:30:06.725Z,11.65
2023-05-14T10:32:37.826Z,9.32
2023-05-14T10:35:16.039Z,7.93
2023-05-14T10:37:44.795Z,7.93
2023-05-14T10:40:14.109Z,11.02
2023-05-14T10:42:43.505Z,6.07
2023-05-14T10:45:17.383Z,5.68
2023-05-14T10:47:46.581Z,5.80
2023-05-14T10:50:15.602Z,6.10
2023-05-14T10:52:43.741Z,6.07
2023-05-14T10:55:14.054Z,6.80
2023-05-14T10:57:43.669Z,5.38
2023-05-14T11:00:12.588Z,6.05
2023-05-14T11:02:41.010Z,6.13
2023-05-14T11:05:11.680Z,5.28
2023-05-14T11:07:39.979Z,6.72
2023-05-14T11:10:08.671Z,4.57
2023-05-14T11:12:36.842Z,4.95
2023-05-14T11:15:07.552Z,4.78
2023-05-14T11:17:36.097Z,4.47
2023-05-14T11:20:05.212Z,4.45
2023-05-14T11:22:32.861Z,5.35
2023-05-14T11:25:00.733Z,3.85
2023-05-14T11:27:28.612Z,4.18
2023-05-14T11:30:01.005Z,4.63
2023-05-14T11:32:29.942Z,4.15
2023-05-14T11:34:57.560Z,3.83
2023-05-14T11:37:25.334Z,4.28
2023-05-14T11:39:54.132Z,4.20
2023-05-14T11:42:22.449Z,3.85
2023-05-14T11:44:51.934Z,3.78
2023-05-14T11:47:20.552Z,4.93
2023-05-14T11:49:50.379Z,3.47
2023-05-14T11:52:19.509Z,4.47
2023-05-14T11:54:47.386Z,29.30
2023-05-14T11:57:16.819Z,10.90
2023-05-14T11:59:47.159Z,17.13
2023-05-14T12:02:18.226Z,8.43
2023-05-14T12:04:46.234Z,9.32
2023-05-14T12:07:16.577Z,5.22
2023-05-14T12:09:49.057Z,5.35
2023-05-14T12:12:19.559Z,5.75
2023-05-14T12:14:47.338Z,5.75
2023-05-14T12:17:16.178Z,4.70
2023-05-14T12:19:45.182Z,11.25
2023-05-14T12:22:13.660Z,8.20
2023-05-14T12:24:44.014Z,7.80
2023-05-14T12:27:11.791Z,6.75
2023-05-14T12:29:40.094Z,12.80
2023-05-14T12:32:11.429Z,6.93
2023-05-14T12:34:39.051Z,5.93
2023-05-14T12:37:06.738Z,6.55
2023-05-14T12:39:34.864Z,3.95
2023-05-14T12:42:03.820Z,4.00
2023-05-14T12:44:31.519Z,5.28
2023-05-14T12:46:59.148Z,4.25
2023-05-14T12:49:26.735Z,3.83
2023-05-14T12:52:04.483Z,4.10
2023-05-14T12:54:43.384Z,3.65
2023-05-14T12:57:12.328Z,3.92
2023-05-14T12:59:40.043Z,3.47
2023-05-14T13:02:08.330Z,3.47
2023-05-14T13:04:36.085Z,3.25
2023-05-14T13:07:04.386Z,3.50
2023-05-14T13:09:31.893Z,3.17
2023-05-14T13:11:59.510Z,4.07
2023-05-14T13:14:28.377Z,4.78
2023-05-14T13:16:56.051Z,3.20
2023-05-14T13:19:23.640Z,4.18
2023-05-14T13:21:51.169Z,3.65
2023-05-14T13:24:18.778Z,4.32
2023-05-14T13:26:46.310Z,3.70
2023-05-14T13:29:13.869Z,3.30
2023-05-14T13:31:42.881Z,3.30
2023-05-14T13:34:11.083Z,2.80
2023-05-14T13:36:39.672Z,3.30
2023-05-14T13:39:07.290Z,3.03
2023-05-14T13:41:35.763Z,3.10
2023-05-14T13:44:03.301Z,3.80
2023-05-14T13:46:30.994Z,3.10
2023-05-14T13:48:59.869Z,3.03
2023-05-14T13:51:27.468Z,3.30
2023-05-14T13:56:27.553Z,3.33
2023-05-14T13:58:55.102Z,3.85
2023-05-14T14:01:23.365Z,4.00
2023-05-14T14:03:50.968Z,3.40
2023-05-14T14:06:19.952Z,3.85
2023-05-14T14:08:47.478Z,3.85
2023-05-14T14:11:15.089Z,3.58
2023-05-14T14:13:43.798Z,4.03
2023-05-14T14:16:13.423Z,6.32
2023-05-14T14:18:43.159Z,3.53
2023-05-14T14:21:11.258Z,4.25
2023-05-14T14:23:40.364Z,3.53
2023-05-14T14:26:08.149Z,4.55
2023-05-14T14:28:35.824Z,4.00
2023-05-14T14:31:03.414Z,3.33
2023-05-14T14:33:31.083Z,4.13
2023-05-14T14:35:58.951Z,4.43
2023-05-14T14:38:26.571Z,4.13
2023-05-14T14:40:55.652Z,4.25
2023-05-14T14:43:23.446Z,3.50
2023-05-14T14:45:51.222Z,3.33
2023-05-14T14:48:28.378Z,3.70
2023-05-14T14:50:56.701Z,3.70
2023-05-14T14:53:25.094Z,3.55
2023-05-14T14:55:53.396Z,3.47
2023-05-14T14:58:22.598Z,4.00
2023-05-14T15:00:51.175Z,3.45
2023-05-14T15:03:18.988Z,3.40
2023-05-14T15:05:47.027Z,3.40
2023-05-14T15:08:14.879Z,3.92
2023-05-14T15:10:43.073Z,4.25
2023-05-14T15:13:12.133Z,4.82
2023-05-14T15:15:41.375Z,3.78
2023-05-14T15:18:09.069Z,3.83
2023-05-14T15:20:36.826Z,4.25
2023-05-14T15:23:05.103Z,3.35
2023-05-14T15:25:32.984Z,3.80
2023-05-14T15:28:01.599Z,3.70
2023-05-14T15:30:29.158Z,3.42
2023-05-14T15:33:01.121Z,5.03
2023-05-14T15:35:29.056Z,3.38
2023-05-14T15:37:59.754Z,3.53
2023-05-14T15:40:28.102Z,3.92
2023-05-14T15:42:55.892Z,3.90
2023-05-14T15:45:23.888Z,5.75
2023-05-14T15:47:53.487Z,3.40
2023-05-14T15:50:22.895Z,3.50
2023-05-14T15:52:51.021Z,3.67
2023-05-14T15:55:21.007Z,3.83
2023-05-14T15:57:48.691Z,3.35
2023-05-14T16:00:16.740Z,6.88
2023-05-14T16:02:44.624Z,3.60
2023-05-14T16:05:12.490Z,3.47
2023-05-14T16:07:41.539Z,3.88
2023-05-14T16:10:17.435Z,4.05
2023-05-14T16:12:45.378Z,3.70
2023-05-14T16:15:13.000Z,4.45
2023-05-14T16:17:40.912Z,3.58
2023-05-14T16:20:09.653Z,3.28
2023-05-14T16:22:37.626Z,3.17
2023-05-14T16:25:06.977Z,3.75
2023-05-14T16:27:34.811Z,3.85
2023-05-14T16:30:04.540Z,4.80
2023-05-14T16:32:37.480Z,3.53
2023-05-14T16:35:05.610Z,4.07
2023-05-14T16:37:34.464Z,3.28
2023-05-14T16:40:02.479Z,3.33
2023-05-14T16:42:32.688Z,3.70
2023-05-14T16:45:00.496Z,3.50
2023-05-14T16:47:31.782Z,3.38
2023-05-14T16:50:02.505Z,2.75
2023-05-14T16:52:31.135Z,3.38
2023-05-14T16:55:04.376Z,3.67
2023-05-14T16:57:35.044Z,4.57
2023-05-14T17:00:06.077Z,2.90
2023-05-14T17:02:34.323Z,3.42
2023-05-14T17:05:02.730Z,5.78
2023-05-14T17:07:31.402Z,3.47
2023-05-14T17:10:00.032Z,3.97
2023-05-14T17:12:30.908Z,2.95
2023-05-14T17:15:02.481Z,3.35
2023-05-14T17:17:35.136Z,3.50
2023-05-14T17:20:03.390Z,3.13
2023-05-14T17:22:31.782Z,3.20
2023-05-14T17:24:59.810Z,3.38
2023-05-14T17:27:29.232Z,3.25
2023-05-14T17:29:56.845Z,4.85
2023-05-14T17:32:26.019Z,3.22
2023-05-14T17:34:56.382Z,3.25
2023-05-14T17:37:26.390Z,3.40
2023-05-14T17:39:54.225Z,3.10
2023-05-14T17:42:21.899Z,3.50
2023-05-14T17:44:49.553Z,5.28
2023-05-14T17:47:17.246Z,3.20
2023-05-14T17:49:46.252Z,3.47
2023-05-14T17:52:14.196Z,3.85
2023-05-14T17:54:41.869Z,3.20
2023-05-14T17:57:09.689Z,3.30
2023-05-14T17:59:37.389Z,4.88
2023-05-14T18:02:05.708Z,3.08
2023-05-14T18:04:33.475Z,4.28
2023-05-14T18:07:06.875Z,3.95
2023-05-14T18:09:37.854Z,3.33
2023-05-14T18:12:08.664Z,3.92
2023-05-14T18:14:36.403Z,5.35
2023-05-14T18:17:09.014Z,6.00
2023-05-14T18:19:41.126Z,5.18
2023-05-14T18:22:10.612Z,3.35
2023-05-14T18:24:38.185Z,4.72
2023-05-14T18:27:06.100Z,3.58
2023-05-14T18:29:33.776Z,3.15
2023-05-14T18:32:01.321Z,3.33
2023-05-14T18:34:28.968Z,5.95
2023-05-14T18:36:57.613Z,3.42
2023-05-14T18:39:26.607Z,4.38
2023-05-14T18:41:57.424Z,4.95
2023-05-14T18:44:33.679Z,3.45
2023-05-14T18:47:01.571Z,3.53
2023-05-14T18:49:29.178Z,5.10
2023-05-14T18:51:56.754Z,6.10
2023-05-14T18:54:24.259Z,4.93
2023-05-14T18:56:53.209Z,3.63
2023-05-14T18:59:20.843Z,3.67
2023-05-14T19:01:48.494Z,3.03
2023-05-14T19:04:15.969Z,5.13
2023-05-14T19:06:43.625Z,4.53
2023-05-14T19:09:11.359Z,3.38
2023-05-14T19:11:38.849Z,4.13
2023-05-14T19:14:09.345Z,5.68
2023-05-14T19:16:37.128Z,3.42
2023-05-14T19:19:06.047Z,5.40
2023-05-14T19:21:36.030Z,3.05
2023-05-14T19:24:03.677Z,4.07
2023-05-14T19:26:31.247Z,7.95
2023-05-14T19:28:59.011Z,3.90
2023-05-14T19:31:28.339Z,4.20
2023-05-14T19:33:56.046Z,5.20
2023-05-14T19:36:23.726Z,5.00
2023-05-14T19:38:51.334Z,4.80
2023-05-14T19:41:18.918Z,5.50
2023-05-14T19:43:46.671Z,3.50
2023-05-14T19:46:14.246Z,8.20
2023-05-14T19:48:43.213Z,3.67
2023-05-14T19:51:10.983Z,7.18
2023-05-14T19:53:38.560Z,4.80
2023-05-14T19:56:06.434Z,4.07
2023-05-14T19:58:34.118Z,6.82
2023-05-14T20:01:01.729Z,7.03
2023-05-14T20:03:30.084Z,4.13
2023-05-14T20:05:59.045Z,4.10
2023-05-14T20:08:26.613Z,4.72
2023-05-14T20:10:54.124Z,7.18
2023-05-14T20:13:23.237Z,8.77
2023-05-14T20:15:52.700Z,4.53
2023-05-14T20:18:20.262Z,5.57
2023-05-14T20:20:47.872Z,10.77
2023-05-14T20:23:20.637Z,4.45
2023-05-14T20:25:48.657Z,4.47
2023-05-14T20:28:16.181Z,7.75
2023-05-14T20:30:43.969Z,4.15
2023-05-14T20:33:13.418Z,5.15
2023-05-14T20:35:43.721Z,6.05
2023-05-14T20:38:12.765Z,5.63
2023-05-14T20:40:42.044Z,6.72
2023-05-14T20:43:09.651Z,5.43
2023-05-14T20:45:37.370Z,5.20
2023-05-14T20:48:07.994Z,6.20
2023-05-14T20:50:35.686Z,16.10
2023-05-14T20:53:03.848Z,9.13
2023-05-14T20:55:31.442Z,14.63
2023-05-14T20:58:03.174Z,10.45
2023-05-14T21:00:30.889Z,7.35
2023-05-14T21:02:59.593Z,6.95
2023-05-14T21:05:27.482Z,8.73
2023-05-14T21:07:55.501Z,9.32
2023-05-14T21:10:25.895Z,6.30
2023-05-14T21:12:53.776Z,6.53
2023-05-14T21:15:23.177Z,7.35
2023-05-14T21:17:51.198Z,7.47
2023-05-14T21:20:18.914Z,5.63
2023-05-14T21:22:46.486Z,5.75
2023-05-14T21:25:14.221Z,7.75
2023-05-14T21:27:41.802Z,6.28
2023-05-14T21:30:09.975Z,6.05
2023-05-14T21:32:39.168Z,6.47
2023-05-14T21:35:07.184Z,5.43
2023-05-14T21:37:35.085Z,5.85
2023-05-14T21:40:02.856Z,5.00
2023-05-14T21:42:30.423Z,6.90
2023-05-14T21:44:57.981Z,5.53
2023-05-14T21:47:30.029Z,7.38
2023-05-14T21:49:59.183Z,7.65
2023-05-14T21:52:27.004Z,5.18
2023-05-14T21:55:05.168Z,6.72
2023-05-14T21:57:34.646Z,5.80
2023-05-14T22:00:03.254Z,5.68
2023-05-14T22:02:31.279Z,6.75
2023-05-14T22:05:00.344Z,6.60
2023-05-14T22:07:28.621Z,6.07
2023-05-14T22:09:56.248Z,6.72
2023-05-14T22:12:24.061Z,6.35
2023-05-14T22:14:51.709Z,5.82
2023-05-14T22:17:19.579Z,7.10
2023-05-14T22:19:47.211Z,8.45
2023-05-14T22:22:17.114Z,8.07
2023-05-14T22:24:44.744Z,8.18
2023-05-14T22:27:12.441Z,9.38
2023-05-14T22:29:39.977Z,8.23
2023-05-14T22:32:08.227Z,6.95
2023-05-14T22:34:35.837Z,9.75
2023-05-14T22:37:03.940Z,13.73
2023-05-14T22:39:32.919Z,8.07
2023-05-14T22:42:00.632Z,8.07
2023-05-14T22:44:30.042Z,7.22
2023-05-14T22:46:58.120Z,7.85
2023-05-14T22:49:25.831Z,6.63
2023-05-14T22:51:54.215Z,7.45
2023-05-14T22:54:21.748Z,7.55
2023-05-14T22:56:51.340Z,6.57
2023-05-14T22:59:19.822Z,6.22
2023-05-14T23:01:48.725Z,7.65
2023-05-14T23:04:16.293Z,7.03
2023-05-14T23:06:44.555Z,7.65
2023-05-14T23:09:12.163Z,7.57
2023-05-14T23:11:39.814Z,7.47
2023-05-14T23:14:09.066Z,7.63
2023-05-14T23:16:36.948Z,7.88
2023-05-14T23:19:04.889Z,7.43
2023-05-14T23:21:32.995Z,9.20
2023-05-14T23:24:01.112Z,7.68
2023-05-14T23:26:28.826Z,9.27
2023-05-14T23:28:56.596Z,7.97
2023-05-14T23:31:25.583Z,8.85
2023-05-14T23:33:53.181Z,6.32
2023-05-14T23:36:20.857Z,5.88
2023-05-14T23:38:48.476Z,7.28
2023-05-14T23:41:16.145Z,8.45
2023-05-14T23:43:43.784Z,8.27
2023-05-14T23:46:11.569Z,9.23
2023-05-14T23:48:40.692Z,8.30
2023-05-14T23:51:08.232Z,8.18
2023-05-14T23:53:35.793Z,6.68
2023-05-14T23:56:03.555Z,14.07
2023-05-14T23:58:31.247Z,8.20
